Aviation Digital Data Service (ADDS)

Output produced by METARs form (0619 UTC 23 August 2017)
found at http://aviationweather.gov/adds/metars/
 
KLAN 230540Z 2306/2406 26007KT P6SM SCT060 
     FM231500 30010G17KT P6SM BKN050 
     FM240000 33004KT P6SM SKC